Summerside, Canada
Current Conditions -  °F | °C
As of 12:00 AM on Tuesday 21 Oct 2014 (Local Time) from CYYG Reporting Station
Few Clouds Few Clouds  
Wind Chill: 34°   Ceiling: Unl
Heat Index: 39°   Visibility: 15mi
Dew Point: 32°   Wind: 8mph
Humidity: 75%   Direction: 250°WSW
Pressure: 29.91"   Gusts: NA
Location:  46.39°N, 63.79°W
Report Text: CYYG 210300Z 25007KT 15SM FEW045 04/M00 A2991 RMK SC2 SLP130
Loading
Personal Weather Stations






























Interactive Weather Map
Tropical Storm Tracking
New forecast layout! Learn more

10-Day Weather Forecast

Advertisements
Track Severe Weather on mobile